Forside
METAR-TAF:

METAR-TAF

Lufthavne :

Ford Airport

Iron Mountain / Kingsford, Michigan, USA

Breddekreds: 45-48-51N, længdekreds: 088-06-32W, højde: 360 m

Aktuelle vejr

Denne rapport blev lavet for 14 minutter siden, kl. 03:45 UTC
Vind 9 kt fra østsydøst
Temperatur -6°C
Fugtighed 86%
Tryk 1024 hPa
Sigt: 1.6 km
let sne, dis

METAR: KIMT 180345Z AUTO 11009KT 1SM -SN BR VV014 M06/M08 A3025 RMK AO2 P0000 T10611083

Tid: 22:59 (03:59 UTC)


TAF: fraværende

Vejrobservationer og prognoser fra mere end 4000 lufthavne (METAR og TAF).

De gule og røde prikker repræsenterer de meteorologiske stationer.

Flyt musen over at se navnet på stationen.

Så klik over at se vejr observationer og prognoser.

At skifte det kort: Klik på de grønne knapper med et sort kors for at zoome ind; på den grønne knap med en bindestreg for at zoome ud; eller på de grønne pile for tilstødende kort.


METAR-TAF: